createdAt,value
2023-05-14T00:00:51.302Z,7.15
2023-05-14T00:06:53.500Z,6.57
2023-05-14T00:12:55.709Z,6.60
2023-05-14T00:18:57.957Z,8.07
2023-05-14T00:25:00.288Z,6.13
2023-05-14T00:31:02.398Z,6.93
2023-05-14T00:37:06.124Z,8.07
2023-05-14T00:43:08.567Z,7.82
2023-05-14T00:49:11.176Z,9.05
2023-05-14T00:55:16.865Z,8.45
2023-05-14T01:01:19.638Z,8.38
2023-05-14T01:07:43.360Z,7.82
2023-05-14T01:20:06.617Z,8.10
2023-05-14T01:26:08.819Z,7.75
2023-05-14T01:32:13.695Z,8.15
2023-05-14T01:38:19.155Z,8.20
2023-05-14T01:44:22.383Z,8.82
2023-05-14T01:50:24.943Z,7.90
2023-05-14T02:02:29.807Z,7.88
2023-05-14T02:08:32.311Z,8.27
2023-05-14T02:20:36.896Z,7.45
2023-05-14T02:26:39.293Z,7.88
2023-05-14T02:32:42.049Z,8.95
2023-05-14T02:38:44.494Z,8.18
2023-05-14T02:44:47.135Z,8.90
2023-05-14T02:50:51.381Z,8.10
2023-05-14T02:56:53.747Z,8.60
2023-05-14T03:02:55.974Z,7.53
2023-05-14T03:08:58.637Z,8.48
2023-05-14T03:15:00.908Z,7.97
2023-05-14T03:21:04.157Z,8.25
2023-05-14T03:27:06.404Z,8.43
2023-05-14T03:39:11.339Z,8.63
2023-05-14T03:45:13.879Z,8.55
2023-05-14T03:51:16.134Z,8.00
2023-05-14T03:57:18.319Z,7.00
2023-05-14T04:03:20.616Z,7.72
2023-05-14T04:09:23.727Z,7.25
2023-05-14T04:15:26.804Z,8.23
2023-05-14T04:27:31.563Z,7.72
2023-05-14T04:33:33.702Z,8.23
2023-05-14T04:39:36.150Z,7.40
2023-05-14T04:45:38.610Z,7.72
2023-05-14T04:51:40.906Z,7.55
2023-05-14T04:57:43.003Z,7.15
2023-05-14T05:03:45.327Z,7.20
2023-05-14T05:09:47.571Z,7.68
2023-05-14T05:15:49.971Z,7.57
2023-05-14T05:21:52.269Z,7.45
2023-05-14T05:27:54.381Z,6.47
2023-05-14T05:33:56.631Z,7.55
2023-05-14T05:39:59.122Z,6.97
2023-05-14T05:46:02.093Z,7.05
2023-05-14T05:52:04.734Z,7.13
2023-05-14T05:58:07.182Z,6.10
2023-05-14T06:04:10.244Z,5.75
2023-05-14T06:10:12.294Z,6.03
2023-05-14T06:16:14.698Z,5.05
2023-05-14T06:22:17.364Z,4.30
2023-05-14T06:28:19.777Z,4.30
2023-05-14T06:34:21.957Z,3.88
2023-05-14T06:40:24.576Z,3.88
2023-05-14T06:46:27.349Z,3.30
2023-05-14T06:52:29.688Z,3.97
2023-05-14T06:58:31.896Z,3.10
2023-05-14T07:04:37.415Z,3.08
2023-05-14T07:10:39.764Z,2.97
2023-05-14T07:16:42.995Z,3.08
2023-05-14T07:22:45.669Z,3.00
2023-05-14T07:28:48.031Z,3.30
2023-05-14T07:34:50.411Z,3.47
2023-05-14T07:40:52.460Z,3.20
2023-05-14T07:46:54.787Z,2.78
2023-05-14T07:52:57.239Z,3.65
2023-05-14T07:58:59.493Z,3.60
2023-05-14T08:05:01.870Z,2.95
2023-05-14T08:11:04.500Z,2.83
2023-05-14T08:17:06.932Z,3.22
2023-05-14T08:23:09.601Z,2.80
2023-05-14T08:29:12.959Z,2.83
2023-05-14T08:35:17.952Z,3.13
2023-05-14T08:41:20.232Z,3.25
2023-05-14T08:47:24.352Z,2.38
2023-05-14T08:53:26.542Z,2.60
2023-05-14T08:59:28.747Z,2.50
2023-05-14T09:05:31.118Z,2.45
2023-05-14T09:11:33.329Z,2.88
2023-05-14T09:17:35.915Z,2.80
2023-05-14T09:23:42.648Z,2.22
2023-05-14T09:29:45.049Z,2.15
2023-05-14T09:35:48.101Z,2.25
2023-05-14T09:41:52.064Z,2.30
2023-05-14T09:47:54.718Z,2.47
2023-05-14T09:53:57.721Z,2.47
2023-05-14T10:00:00.012Z,2.58
2023-05-14T10:06:06.715Z,2.58
2023-05-14T10:12:09.514Z,2.53
2023-05-14T10:18:16.379Z,3.38
2023-05-14T10:24:19.531Z,2.13
2023-05-14T10:30:23.469Z,4.45
2023-05-14T10:36:26.119Z,2.28
2023-05-14T10:42:35.638Z,2.72
2023-05-14T10:48:39.665Z,3.05
2023-05-14T10:54:48.993Z,4.50
2023-05-14T11:00:54.989Z,3.58
2023-05-14T11:06:57.733Z,3.42
2023-05-14T11:12:59.889Z,3.40
2023-05-14T11:19:03.920Z,3.53
2023-05-14T11:25:07.277Z,17.05
2023-05-14T11:31:10.684Z,7.80
2023-05-14T11:37:14.594Z,10.75
2023-05-14T11:43:16.952Z,9.30
2023-05-14T11:49:22.241Z,4.43
2023-05-14T11:55:24.522Z,3.00
2023-05-14T12:01:27.608Z,3.17
2023-05-14T12:07:30.913Z,2.97
2023-05-14T12:13:33.327Z,3.95
2023-05-14T12:19:40.986Z,2.38
2023-05-14T12:25:52.728Z,2.80
2023-05-14T12:31:59.450Z,2.35
2023-05-14T12:38:01.724Z,3.10
2023-05-14T12:44:06.684Z,2.67
2023-05-14T12:50:09.581Z,2.28
2023-05-14T12:56:12.424Z,2.28
2023-05-14T13:02:17.354Z,4.90
2023-05-14T13:08:21.804Z,2.72
2023-05-14T13:14:24.100Z,2.53
2023-05-14T13:20:27.824Z,3.70
2023-05-14T13:26:30.203Z,2.28
2023-05-14T13:38:35.167Z,3.17
2023-05-14T13:44:37.408Z,2.42
2023-05-14T13:56:41.662Z,2.92
2023-05-14T14:02:43.715Z,2.80
2023-05-14T14:08:45.861Z,4.57
2023-05-14T14:14:48.010Z,4.32
2023-05-14T14:20:50.282Z,3.72
2023-05-14T14:32:55.118Z,3.17
2023-05-14T14:38:57.477Z,2.85
2023-05-14T14:51:02.207Z,2.83
2023-05-14T14:57:04.603Z,2.55
2023-05-14T15:03:07.625Z,3.13
2023-05-14T15:09:09.805Z,2.65
2023-05-14T15:15:12.025Z,3.00
2023-05-14T15:21:14.276Z,2.90
2023-05-14T15:27:16.764Z,3.28
2023-05-14T15:33:19.694Z,2.90
2023-05-14T15:39:21.892Z,3.15
2023-05-14T15:45:24.425Z,3.28
2023-05-14T15:57:28.719Z,3.55
2023-05-14T16:03:31.233Z,2.78
2023-05-14T16:09:33.788Z,3.28
2023-05-14T16:21:38.135Z,3.40
2023-05-14T16:27:40.242Z,2.60
2023-05-14T16:33:42.517Z,2.72
2023-05-14T16:39:44.727Z,3.60
2023-05-14T16:45:46.910Z,2.67
2023-05-14T16:51:49.374Z,3.90
2023-05-14T16:57:51.650Z,3.10
2023-05-14T17:03:53.808Z,3.50
2023-05-14T17:09:56.559Z,3.25
2023-05-14T17:15:59.193Z,2.53
2023-05-14T17:22:01.430Z,3.05
2023-05-14T17:28:03.570Z,3.08
2023-05-14T17:34:05.919Z,4.00
2023-05-14T17:40:08.511Z,4.25
2023-05-14T17:52:12.878Z,2.65
2023-05-14T17:58:16.342Z,3.28
2023-05-14T18:04:18.786Z,6.10
2023-05-14T18:10:20.973Z,3.42
2023-05-14T18:16:23.308Z,2.75
2023-05-14T18:22:25.575Z,3.00
2023-05-14T18:28:28.398Z,3.55
2023-05-14T18:34:30.704Z,3.88
2023-05-14T18:40:32.797Z,3.58
2023-05-14T18:46:35.022Z,3.42
2023-05-14T18:52:37.640Z,4.68
2023-05-14T19:04:51.627Z,4.00
2023-05-14T19:10:55.405Z,3.53
2023-05-14T19:16:57.661Z,4.13
2023-05-14T19:22:59.944Z,3.75
2023-05-14T19:29:02.422Z,3.55
2023-05-14T19:35:06.329Z,4.13
2023-05-14T19:41:08.436Z,3.80
2023-05-14T19:47:10.871Z,3.40
2023-05-14T19:53:13.623Z,3.70
2023-05-14T19:59:15.851Z,3.10
2023-05-14T20:05:18.241Z,2.97
2023-05-14T20:11:20.316Z,3.03
2023-05-14T20:17:22.594Z,3.07
2023-05-14T20:23:25.389Z,2.75
2023-05-14T20:29:28.215Z,2.60
2023-05-14T20:35:30.477Z,2.88
2023-05-14T20:41:32.764Z,3.10
2023-05-14T20:47:35.968Z,3.10
2023-05-14T20:53:39.576Z,2.88
2023-05-14T20:59:42.599Z,3.05
2023-05-14T21:05:44.845Z,2.78
2023-05-14T21:11:47.202Z,2.70
2023-05-14T21:17:49.538Z,2.55
2023-05-14T21:23:51.773Z,2.42
2023-05-14T21:29:54.313Z,3.10
2023-05-14T21:35:56.524Z,2.58
2023-05-14T21:41:58.901Z,2.83
2023-05-14T21:48:01.319Z,2.97
2023-05-14T21:54:03.916Z,2.47
2023-05-14T22:00:11.400Z,2.25
2023-05-14T22:06:14.783Z,3.22
2023-05-14T22:12:18.319Z,2.90
2023-05-14T22:18:20.883Z,3.15
2023-05-14T22:24:23.179Z,2.45
2023-05-14T22:30:25.817Z,3.83
2023-05-14T22:36:28.126Z,3.55
2023-05-14T22:42:30.329Z,2.70
2023-05-14T22:48:32.456Z,3.33
2023-05-14T22:54:34.896Z,2.87
2023-05-14T23:00:37.211Z,2.75
2023-05-14T23:06:39.449Z,3.15
2023-05-14T23:12:41.514Z,3.13
2023-05-14T23:18:44.247Z,2.60
2023-05-14T23:30:48.971Z,3.20
2023-05-14T23:36:51.502Z,3.22
2023-05-14T23:42:53.932Z,2.75
2023-05-14T23:48:57.423Z,3.03
2023-05-14T23:54:59.992Z,2.47
